sensor_id;sensor_type;location;lat;lon;timestamp;pressure;altitude;pressure_sealevel;temperature;humidity
9141;BME280;46330;50.822;7.126;2023-04-08T00:00:50;101483.25;;;8.25;100.00
9141;BME280;46330;50.822;7.126;2023-04-08T00:03:19;101477.13;;;8.26;100.00
9141;BME280;46330;50.822;7.126;2023-04-08T00:05:47;101483.28;;;8.28;100.00
9141;BME280;46330;50.822;7.126;2023-04-08T00:08:15;101489.31;;;8.27;100.00
9141;BME280;46330;50.822;7.126;2023-04-08T00:10:43;101486.69;;;8.25;100.00
9141;BME280;46330;50.822;7.126;2023-04-08T00:13:11;101492.78;;;8.24;100.00
9141;BME280;46330;50.822;7.126;2023-04-08T00:15:40;101478.88;;;8.21;100.00
9141;BME280;46330;50.822;7.126;2023-04-08T00:18:10;101485.81;;;8.20;100.00
9141;BME280;46330;50.822;7.126;2023-04-08T00:20:37;101492.78;;;8.21;100.00
9141;BME280;46330;50.822;7.126;2023-04-08T00:23:06;101488.44;;;8.23;100.00
9141;BME280;46330;50.822;7.126;2023-04-08T00:25:34;101486.69;;;8.21;100.00
9141;BME280;46330;50.822;7.126;2023-04-08T00:28:01;101490.13;;;8.17;100.00
9141;BME280;46330;50.822;7.126;2023-04-08T00:30:29;101485.81;;;8.16;100.00
9141;BME280;46330;50.822;7.126;2023-04-08T00:32:57;101491.88;;;8.19;100.00
9141;BME280;46330;50.822;7.126;2023-04-08T00:35:27;101496.22;;;8.17;100.00
9141;BME280;46330;50.822;7.126;2023-04-08T00:37:55;101496.25;;;8.16;100.00
9141;BME280;46330;50.822;7.126;2023-04-08T00:40:23;101500.56;;;8.15;100.00
9141;BME280;46330;50.822;7.126;2023-04-08T00:42:51;101497.09;;;8.18;100.00
9141;BME280;46330;50.822;7.126;2023-04-08T00:45:19;101500.56;;;8.17;100.00
9141;BME280;46330;50.822;7.126;2023-04-08T00:47:47;101494.47;;;8.19;100.00
9141;BME280;46330;50.822;7.126;2023-04-08T00:50:18;101497.09;;;8.19;100.00
9141;BME280;46330;50.822;7.126;2023-04-08T00:52:48;101491.88;;;8.11;100.00
9141;BME280;46330;50.822;7.126;2023-04-08T00:55:15;101496.22;;;8.17;100.00
9141;BME280;46330;50.822;7.126;2023-04-08T00:57:44;101499.69;;;8.19;100.00
9141;BME280;46330;50.822;7.126;2023-04-08T01:00:14;101497.06;;;8.10;100.00
9141;BME280;46330;50.822;7.126;2023-04-08T01:02:46;101503.16;;;8.13;100.00
9141;BME280;46330;50.822;7.126;2023-04-08T01:05:26;101499.66;;;8.10;100.00
9141;BME280;46330;50.822;7.126;2023-04-08T01:07:58;101509.25;;;8.17;100.00
9141;BME280;46330;50.822;7.126;2023-04-08T01:10:30;101500.53;;;8.10;100.00
9141;BME280;46330;50.822;7.126;2023-04-08T01:13:03;101493.63;;;8.13;100.00
9141;BME280;46330;50.822;7.126;2023-04-08T01:15:33;101504.91;;;8.16;100.00
9141;BME280;46330;50.822;7.126;2023-04-08T01:18:06;101504.91;;;8.15;100.00
9141;BME280;46330;50.822;7.126;2023-04-08T01:20:35;101504.03;;;8.13;100.00
9141;BME280;46330;50.822;7.126;2023-04-08T01:23:12;101499.69;;;8.16;100.00
9141;BME280;46330;50.822;7.126;2023-04-08T01:25:46;101497.97;;;8.15;100.00
9141;BME280;46330;50.822;7.126;2023-04-08T01:28:15;101498.81;;;8.14;100.00
9141;BME280;46330;50.822;7.126;2023-04-08T01:30:45;101504.03;;;8.13;100.00
9141;BME280;46330;50.822;7.126;2023-04-08T01:33:16;101504.88;;;8.10;100.00
9141;BME280;46330;50.822;7.126;2023-04-08T01:35:45;101508.38;;;8.09;100.00
9141;BME280;46330;50.822;7.126;2023-04-08T01:38:15;101504.00;;;8.08;100.00
9141;BME280;46330;50.822;7.126;2023-04-08T01:40:46;101504.03;;;8.11;100.00
9141;BME280;46330;50.822;7.126;2023-04-08T01:43:16;101504.88;;;8.13;100.00
9141;BME280;46330;50.822;7.126;2023-04-08T01:45:46;101507.47;;;8.08;100.00
9141;BME280;46330;50.822;7.126;2023-04-08T01:48:15;101504.88;;;8.10;100.00
9141;BME280;46330;50.822;7.126;2023-04-08T01:50:43;101512.69;;;8.08;100.00
9141;BME280;46330;50.822;7.126;2023-04-08T01:53:12;101508.31;;;8.04;100.00
9141;BME280;46330;50.822;7.126;2023-04-08T01:55:41;101516.16;;;8.03;100.00
9141;BME280;46330;50.822;7.126;2023-04-08T01:58:19;101516.13;;;8.00;100.00
9141;BME280;46330;50.822;7.126;2023-04-08T02:00:48;101515.25;;;7.99;100.00
9141;BME280;46330;50.822;7.126;2023-04-08T02:03:18;101523.06;;;7.99;100.00
9141;BME280;46330;50.822;7.126;2023-04-08T02:05:49;101516.97;;;7.96;100.00
9141;BME280;46330;50.822;7.126;2023-04-08T02:08:17;101514.34;;;7.97;100.00
9141;BME280;46330;50.822;7.126;2023-04-08T02:10:46;101519.56;;;7.97;100.00
9141;BME280;46330;50.822;7.126;2023-04-08T02:13:15;101513.50;;;7.98;100.00
9141;BME280;46330;50.822;7.126;2023-04-08T02:15:55;101524.81;;;8.03;100.00
9141;BME280;46330;50.822;7.126;2023-04-08T02:18:25;101520.47;;;8.04;100.00
9141;BME280;46330;50.822;7.126;2023-04-08T02:20:57;101516.13;;;7.97;100.00
9141;BME280;46330;50.822;7.126;2023-04-08T02:23:32;101516.06;;;7.91;100.00
9141;BME280;46330;50.822;7.126;2023-04-08T02:26:03;101516.06;;;7.91;100.00
9141;BME280;46330;50.822;7.126;2023-04-08T02:28:36;101518.66;;;7.86;100.00
9141;BME280;46330;50.822;7.126;2023-04-08T02:31:04;101516.94;;;7.90;100.00
9141;BME280;46330;50.822;7.126;2023-04-08T02:33:37;101517.78;;;7.89;100.00
9141;BME280;46330;50.822;7.126;2023-04-08T02:36:06;101519.53;;;7.90;100.00
9141;BME280;46330;50.822;7.126;2023-04-08T02:38:35;101520.41;;;7.92;100.00
9141;BME280;46330;50.822;7.126;2023-04-08T02:41:03;101523.91;;;7.94;100.00
9141;BME280;46330;50.822;7.126;2023-04-08T02:43:31;101517.78;;;7.89;100.00
9141;BME280;46330;50.822;7.126;2023-04-08T02:46:05;101527.34;;;7.88;100.00
9141;BME280;46330;50.822;7.126;2023-04-08T02:48:35;101518.63;;;7.88;100.00
9141;BME280;46330;50.822;7.126;2023-04-08T02:51:03;101529.06;;;7.86;100.00
9141;BME280;46330;50.822;7.126;2023-04-08T02:53:31;101528.22;;;7.87;100.00
9141;BME280;46330;50.822;7.126;2023-04-08T02:55:59;101527.34;;;7.91;100.00
9141;BME280;46330;50.822;7.126;2023-04-08T02:58:27;101518.72;;;7.94;100.00
9141;BME280;46330;50.822;7.126;2023-04-08T03:00:55;101531.72;;;7.94;100.00
9141;BME280;46330;50.822;7.126;2023-04-08T03:03:24;101535.16;;;7.91;100.00
9141;BME280;46330;50.822;7.126;2023-04-08T03:05:56;101532.53;;;7.87;100.00
9141;BME280;46330;50.822;7.126;2023-04-08T03:08:24;101530.84;;;7.92;100.00
9141;BME280;46330;50.822;7.126;2023-04-08T03:10:52;101527.34;;;7.90;100.00
9141;BME280;46330;50.822;7.126;2023-04-08T03:13:20;101537.78;;;7.91;100.00
9141;BME280;46330;50.822;7.126;2023-04-08T03:15:48;101532.53;;;7.88;100.00
9141;BME280;46330;50.822;7.126;2023-04-08T03:18:16;101528.22;;;7.90;100.00
9141;BME280;46330;50.822;7.126;2023-04-08T03:20:45;101527.34;;;7.88;100.00
9141;BME280;46330;50.822;7.126;2023-04-08T03:23:13;101529.97;;;7.90;100.00
9141;BME280;46330;50.822;7.126;2023-04-08T03:25:41;101535.16;;;7.90;100.00
9141;BME280;46330;50.822;7.126;2023-04-08T03:28:09;101527.31;;;7.84;100.00
9141;BME280;46330;50.822;7.126;2023-04-08T03:30:37;101533.38;;;7.83;100.00
9141;BME280;46330;50.822;7.126;2023-04-08T03:33:05;101530.78;;;7.83;100.00
9141;BME280;46330;50.822;7.126;2023-04-08T03:35:34;101531.59;;;7.79;100.00
9141;BME280;46330;50.822;7.126;2023-04-08T03:38:04;101543.78;;;7.80;100.00
9141;BME280;46330;50.822;7.126;2023-04-08T03:40:32;101540.31;;;7.79;100.00
9141;BME280;46330;50.822;7.126;2023-04-08T03:43:00;101542.94;;;7.81;100.00
9141;BME280;46330;50.822;7.126;2023-04-08T03:45:28;101534.22;;;7.82;100.00
9141;BME280;46330;50.822;7.126;2023-04-08T03:47:55;101530.75;;;7.80;100.00
9141;BME280;46330;50.822;7.126;2023-04-08T03:50:23;101529.00;;;7.77;100.00
9141;BME280;46330;50.822;7.126;2023-04-08T03:52:51;101545.53;;;7.81;100.00
9141;BME280;46330;50.822;7.126;2023-04-08T03:55:20;101533.38;;;7.78;100.00
9141;BME280;46330;50.822;7.126;2023-04-08T03:57:48;101533.38;;;7.81;100.00
9141;BME280;46330;50.822;7.126;2023-04-08T04:00:16;101540.31;;;7.82;100.00
9141;BME280;46330;50.822;7.126;2023-04-08T04:02:44;101538.56;;;7.78;100.00
9141;BME280;46330;50.822;7.126;2023-04-08T04:05:13;101541.22;;;7.84;100.00
9141;BME280;46330;50.822;7.126;2023-04-08T04:07:41;101540.38;;;7.87;100.00
9141;BME280;46330;50.822;7.126;2023-04-08T04:10:09;101541.22;;;7.86;100.00
9141;BME280;46330;50.822;7.126;2023-04-08T04:12:38;101537.75;;;7.84;100.00
9141;BME280;46330;50.822;7.126;2023-04-08T04:15:07;101544.66;;;7.82;100.00
9141;BME280;46330;50.822;7.126;2023-04-08T04:17:35;101537.69;;;7.78;100.00
9141;BME280;46330;50.822;7.126;2023-04-08T04:20:03;101538.56;;;7.80;100.00
9141;BME280;46330;50.822;7.126;2023-04-08T04:22:32;101547.25;;;7.82;100.00
9141;BME280;46330;50.822;7.126;2023-04-08T04:25:00;101548.16;;;7.85;100.00
9141;BME280;46330;50.822;7.126;2023-04-08T04:27:27;101545.56;;;7.87;100.00
9141;BME280;46330;50.822;7.126;2023-04-08T04:29:57;101549.91;;;7.89;100.00
9141;BME280;46330;50.822;7.126;2023-04-08T04:32:25;101548.16;;;7.88;100.00
9141;BME280;46330;50.822;7.126;2023-04-08T04:34:52;101551.63;;;7.81;100.00
9141;BME280;46330;50.822;7.126;2023-04-08T04:37:20;101556.81;;;7.80;100.00
9141;BME280;46330;50.822;7.126;2023-04-08T04:39:48;101557.63;;;7.76;100.00
9141;BME280;46330;50.822;7.126;2023-04-08T04:42:16;101565.50;;;7.83;100.00
9141;BME280;46330;50.822;7.126;2023-04-08T04:44:44;101562.88;;;7.82;100.00
9141;BME280;46330;50.822;7.126;2023-04-08T04:47:13;101557.66;;;7.79;100.00
9141;BME280;46330;50.822;7.126;2023-04-08T04:49:41;101564.63;;;7.83;100.00
9141;BME280;46330;50.822;7.126;2023-04-08T04:52:11;101568.97;;;7.81;100.00
9141;BME280;46330;50.822;7.126;2023-04-08T04:54:39;101571.56;;;7.82;100.00
9141;BME280;46330;50.822;7.126;2023-04-08T04:57:07;101559.41;;;7.75;100.00
9141;BME280;46330;50.822;7.126;2023-04-08T04:59:34;101559.41;;;7.80;100.00
9141;BME280;46330;50.822;7.126;2023-04-08T05:02:02;101568.97;;;7.82;100.00
9141;BME280;46330;50.822;7.126;2023-04-08T05:04:32;101565.50;;;7.85;100.00
9141;BME280;46330;50.822;7.126;2023-04-08T05:07:00;101568.97;;;7.82;100.00
9141;BME280;46330;50.822;7.126;2023-04-08T05:09:28;101567.25;;;7.81;100.00
9141;BME280;46330;50.822;7.126;2023-04-08T05:11:57;101572.44;;;7.80;100.00
9141;BME280;46330;50.822;7.126;2023-04-08T05:14:27;101577.66;;;7.83;100.00
9141;BME280;46330;50.822;7.126;2023-04-08T05:16:55;101575.88;;;7.74;100.00
9141;BME280;46330;50.822;7.126;2023-04-08T05:19:24;101575.88;;;7.79;100.00
9141;BME280;46330;50.822;7.126;2023-04-08T05:21:53;101577.63;;;7.80;100.00
9141;BME280;46330;50.822;7.126;2023-04-08T05:24:21;101581.13;;;7.83;100.00
9141;BME280;46330;50.822;7.126;2023-04-08T05:26:49;101582.00;;;7.85;100.00
9141;BME280;46330;50.822;7.126;2023-04-08T05:29:19;101575.06;;;7.81;100.00
9141;BME280;46330;50.822;7.126;2023-04-08T05:31:47;101583.72;;;7.82;100.00
9141;BME280;46330;50.822;7.126;2023-04-08T05:34:15;101582.88;;;7.81;100.00
9141;BME280;46330;50.822;7.126;2023-04-08T05:36:48;101586.31;;;7.82;100.00
9141;BME280;46330;50.822;7.126;2023-04-08T05:39:19;101587.19;;;7.81;100.00
9141;BME280;46330;50.822;7.126;2023-04-08T05:41:47;101583.63;;;7.70;100.00
9141;BME280;46330;50.822;7.126;2023-04-08T05:44:15;101585.41;;;7.74;100.00
9141;BME280;46330;50.822;7.126;2023-04-08T05:46:43;101589.69;;;7.67;100.00
9141;BME280;46330;50.822;7.126;2023-04-08T05:49:11;101597.47;;;7.64;100.00
9141;BME280;46330;50.822;7.126;2023-04-08T05:51:39;101596.66;;;7.68;100.00
9141;BME280;46330;50.822;7.126;2023-04-08T05:54:07;101608.00;;;7.75;100.00
9141;BME280;46330;50.822;7.126;2023-04-08T05:56:37;101610.56;;;7.73;100.00
9141;BME280;46330;50.822;7.126;2023-04-08T05:59:05;101609.75;;;7.77;100.00
9141;BME280;46330;50.822;7.126;2023-04-08T06:01:33;101617.56;;;7.80;100.00
9141;BME280;46330;50.822;7.126;2023-04-08T06:04:01;101615.84;;;7.82;100.00
9141;BME280;46330;50.822;7.126;2023-04-08T06:06:29;101614.94;;;7.79;100.00
9141;BME280;46330;50.822;7.126;2023-04-08T06:08:57;101621.06;;;7.82;100.00
9141;BME280;46330;50.822;7.126;2023-04-08T06:11:25;101615.91;;;7.91;100.00
9141;BME280;46330;50.822;7.126;2023-04-08T06:13:54;101619.41;;;7.90;100.00
9141;BME280;46330;50.822;7.126;2023-04-08T06:16:22;101622.84;;;7.89;100.00
9141;BME280;46330;50.822;7.126;2023-04-08T06:18:50;101626.34;;;7.93;100.00
9141;BME280;46330;50.822;7.126;2023-04-08T06:21:19;101620.28;;;7.92;100.00
9141;BME280;46330;50.822;7.126;2023-04-08T06:23:47;101635.09;;;8.01;100.00
9141;BME280;46330;50.822;7.126;2023-04-08T06:26:14;101632.44;;;7.95;100.00
9141;BME280;46330;50.822;7.126;2023-04-08T06:28:42;101643.72;;;7.95;100.00
9141;BME280;46330;50.822;7.126;2023-04-08T06:31:12;101644.66;;;8.02;100.00
9141;BME280;46330;50.822;7.126;2023-04-08T06:33:40;101643.75;;;7.98;100.00
9141;BME280;46330;50.822;7.126;2023-04-08T06:36:08;101646.38;;;8.00;100.00
9141;BME280;46330;50.822;7.126;2023-04-08T06:38:36;101643.81;;;8.03;100.00
9141;BME280;46330;50.822;7.126;2023-04-08T06:41:05;101651.63;;;8.03;100.00
9141;BME280;46330;50.822;7.126;2023-04-08T06:43:34;101649.88;;;8.06;100.00
9141;BME280;46330;50.822;7.126;2023-04-08T06:46:04;101649.88;;;8.05;100.00
9141;BME280;46330;50.822;7.126;2023-04-08T06:48:33;101649.06;;;8.09;100.00
9141;BME280;46330;50.822;7.126;2023-04-08T06:51:03;101649.03;;;8.07;100.00
9141;BME280;46330;50.822;7.126;2023-04-08T06:53:33;101645.59;;;8.16;100.00
9141;BME280;46330;50.822;7.126;2023-04-08T06:56:01;101647.34;;;8.14;100.00
9141;BME280;46330;50.822;7.126;2023-04-08T06:58:29;101652.56;;;8.14;100.00
9141;BME280;46330;50.822;7.126;2023-04-08T07:00:58;101656.91;;;8.17;100.00
9141;BME280;46330;50.822;7.126;2023-04-08T07:03:26;101655.22;;;8.23;100.00
9141;BME280;46330;50.822;7.126;2023-04-08T07:05:56;101653.50;;;8.24;100.00
9141;BME280;46330;50.822;7.126;2023-04-08T07:08:24;101654.44;;;8.32;100.00
9141;BME280;46330;50.822;7.126;2023-04-08T07:10:52;101655.31;;;8.35;100.00
9141;BME280;46330;50.822;7.126;2023-04-08T07:13:20;101661.44;;;8.42;100.00
9141;BME280;46330;50.822;7.126;2023-04-08T07:15:49;101669.25;;;8.39;100.00
9141;BME280;46330;50.822;7.126;2023-04-08T07:18:17;101672.84;;;8.53;100.00
9141;BME280;46330;50.822;7.126;2023-04-08T07:20:49;101665.00;;;8.50;100.00
9141;BME280;46330;50.822;7.126;2023-04-08T07:23:20;101679.84;;;8.69;100.00
9141;BME280;46330;50.822;7.126;2023-04-08T07:25:48;101671.25;;;8.85;100.00
9141;BME280;46330;50.822;7.126;2023-04-08T07:28:16;101688.66;;;8.97;100.00
9141;BME280;46330;50.822;7.126;2023-04-08T07:30:44;101671.31;;;9.06;100.00
9141;BME280;46330;50.822;7.126;2023-04-08T07:33:12;101681.75;;;9.09;100.00
9141;BME280;46330;50.822;7.126;2023-04-08T07:35:41;101693.06;;;9.02;100.00
9141;BME280;46330;50.822;7.126;2023-04-08T07:38:10;101690.34;;;8.84;100.00
9141;BME280;46330;50.822;7.126;2023-04-08T07:40:40;101692.00;;;8.64;100.00
9141;BME280;46330;50.822;7.126;2023-04-08T07:43:08;101690.28;;;8.68;100.00
9141;BME280;46330;50.822;7.126;2023-04-08T07:45:36;101692.91;;;8.75;100.00
9141;BME280;46330;50.822;7.126;2023-04-08T07:48:04;101699.06;;;8.80;100.00
9141;BME280;46330;50.822;7.126;2023-04-08T07:50:35;101705.13;;;8.82;100.00
9141;BME280;46330;50.822;7.126;2023-04-08T07:53:23;101697.34;;;8.84;100.00
9141;BME280;46330;50.822;7.126;2023-04-08T07:55:53;101695.63;;;8.87;100.00
9141;BME280;46330;50.822;7.126;2023-04-08T07:58:21;101700.81;;;8.89;100.00
9141;BME280;46330;50.822;7.126;2023-04-08T08:00:50;101706.88;;;8.83;100.00
9141;BME280;46330;50.822;7.126;2023-04-08T08:03:18;101709.53;;;8.97;100.00
9141;BME280;46330;50.822;7.126;2023-04-08T08:05:46;101710.41;;;8.93;100.00
9141;BME280;46330;50.822;7.126;2023-04-08T08:08:14;101713.94;;;9.07;100.00
9141;BME280;46330;50.822;7.126;2023-04-08T08:10:42;101714.00;;;9.25;100.00
9141;BME280;46330;50.822;7.126;2023-04-08T08:13:12;101721.03;;;9.37;100.00
9141;BME280;46330;50.822;7.126;2023-04-08T08:15:42;101721.88;;;9.33;100.00
9141;BME280;46330;50.822;7.126;2023-04-08T08:18:10;101720.13;;;9.32;100.00
9141;BME280;46330;50.822;7.126;2023-04-08T08:20:38;101721.00;;;9.29;100.00
9141;BME280;46330;50.822;7.126;2023-04-08T08:23:06;101725.38;;;9.36;100.00
9141;BME280;46330;50.822;7.126;2023-04-08T08:25:34;101719.25;;;9.24;100.00
9141;BME280;46330;50.822;7.126;2023-04-08T08:28:01;101729.69;;;9.34;100.00
9141;BME280;46330;50.822;7.126;2023-04-08T08:30:31;101726.19;;;9.26;100.00
9141;BME280;46330;50.822;7.126;2023-04-08T08:32:59;101725.38;;;9.44;100.00
9141;BME280;46330;50.822;7.126;2023-04-08T08:35:27;101731.47;;;9.40;100.00
9141;BME280;46330;50.822;7.126;2023-04-08T08:37:55;101726.25;;;9.47;100.00
9141;BME280;46330;50.822;7.126;2023-04-08T08:40:23;101729.75;;;9.54;100.00
9141;BME280;46330;50.822;7.126;2023-04-08T08:42:51;101728.94;;;9.70;100.00
9141;BME280;46330;50.822;7.126;2023-04-08T08:45:19;101732.41;;;9.84;100.00
9141;BME280;46330;50.822;7.126;2023-04-08T08:47:50;101721.13;;;9.99;100.00
9141;BME280;46330;50.822;7.126;2023-04-08T08:50:18;101729.84;;;10.04;99.37
9141;BME280;46330;50.822;7.126;2023-04-08T08:52:50;101736.84;;;10.17;96.49
9141;BME280;46330;50.822;7.126;2023-04-08T08:55:19;101737.69;;;10.07;97.58
9141;BME280;46330;50.822;7.126;2023-04-08T08:58:07;101748.19;;;10.20;98.52
9141;BME280;46330;50.822;7.126;2023-04-08T09:00:36;101735.97;;;10.32;97.13
9141;BME280;46330;50.822;7.126;2023-04-08T09:03:20;101742.56;;;11.54;93.67
9141;BME280;46330;50.822;7.126;2023-04-08T09:05:50;101751.94;;;11.96;90.59
9141;BME280;46330;50.822;7.126;2023-04-08T09:08:29;101748.50;;;11.88;88.70
9141;BME280;46330;50.822;7.126;2023-04-08T09:11:11;101748.63;;;11.72;88.98
9141;BME280;46330;50.822;7.126;2023-04-08T09:13:40;101736.53;;;11.41;90.75
9141;BME280;46330;50.822;7.126;2023-04-08T09:16:10;101741.00;;;11.19;91.84
9141;BME280;46330;50.822;7.126;2023-04-08T09:18:39;101747.19;;;10.96;91.95
9141;BME280;46330;50.822;7.126;2023-04-08T09:21:11;101748.94;;;10.88;92.99
9141;BME280;46330;50.822;7.126;2023-04-08T09:23:41;101751.59;;;10.78;93.73
9141;BME280;46330;50.822;7.126;2023-04-08T09:26:10;101751.63;;;10.62;94.44
9141;BME280;46330;50.822;7.126;2023-04-08T09:28:39;101755.09;;;10.62;94.13
9141;BME280;46330;50.822;7.126;2023-04-08T09:31:18;101749.84;;;10.85;93.31
9141;BME280;46330;50.822;7.126;2023-04-08T09:33:50;101763.81;;;10.72;93.67
9141;BME280;46330;50.822;7.126;2023-04-08T09:36:19;101763.84;;;10.70;94.51
9141;BME280;46330;50.822;7.126;2023-04-08T09:38:47;101762.06;;;10.72;95.47
9141;BME280;46330;50.822;7.126;2023-04-08T09:41:16;101765.56;;;10.65;94.39
9141;BME280;46330;50.822;7.126;2023-04-08T09:43:47;101762.09;;;10.54;94.70
9141;BME280;46330;50.822;7.126;2023-04-08T09:46:17;101765.59;;;10.64;94.63
9141;BME280;46330;50.822;7.126;2023-04-08T09:49:05;101769.03;;;10.83;94.10
9141;BME280;46330;50.822;7.126;2023-04-08T09:51:39;101768.16;;;10.93;91.21
9141;BME280;46330;50.822;7.126;2023-04-08T09:54:15;101768.97;;;11.11;92.78
9141;BME280;46330;50.822;7.126;2023-04-08T09:56:50;101769.00;;;11.01;90.41
9141;BME280;46330;50.822;7.126;2023-04-08T09:59:23;101765.50;;;10.97;89.98
9141;BME280;46330;50.822;7.126;2023-04-08T10:01:55;101765.56;;;10.71;90.74
9141;BME280;46330;50.822;7.126;2023-04-08T10:04:28;101765.53;;;10.90;88.69
9141;BME280;46330;50.822;7.126;2023-04-08T10:07:02;101758.53;;;10.93;89.21
9141;BME280;46330;50.822;7.126;2023-04-08T10:09:31;101767.25;;;10.94;87.20
9141;BME280;46330;50.822;7.126;2023-04-08T10:12:00;101761.16;;;10.90;88.55
9141;BME280;46330;50.822;7.126;2023-04-08T10:14:28;101766.28;;;11.22;88.39
9141;BME280;46330;50.822;7.126;2023-04-08T10:17:23;101761.94;;;11.18;85.98
9141;BME280;46330;50.822;7.126;2023-04-08T10:19:53;101768.88;;;11.36;86.71
9141;BME280;46330;50.822;7.126;2023-04-08T10:22:46;101757.59;;;11.15;87.94
9141;BME280;46330;50.822;7.126;2023-04-08T10:25:31;101756.59;;;11.45;86.86
9141;BME280;46330;50.822;7.126;2023-04-08T10:28:00;101768.88;;;11.31;83.61
9141;BME280;46330;50.822;7.126;2023-04-08T10:30:39;101766.31;;;11.23;84.03
9141;BME280;46330;50.822;7.126;2023-04-08T10:33:12;101775.00;;;11.28;85.77
9141;BME280;46330;50.822;7.126;2023-04-08T10:35:53;101770.63;;;11.24;85.91
9141;BME280;46330;50.822;7.126;2023-04-08T10:38:21;101777.69;;;11.13;84.12
9141;BME280;46330;50.822;7.126;2023-04-08T10:40:49;101771.50;;;11.28;83.72
9141;BME280;46330;50.822;7.126;2023-04-08T10:43:18;101766.25;;;11.36;83.38
9141;BME280;46330;50.822;7.126;2023-04-08T10:45:46;101773.19;;;11.49;80.90
9141;BME280;46330;50.822;7.126;2023-04-08T10:48:19;101771.31;;;11.69;81.87
9141;BME280;46330;50.822;7.126;2023-04-08T10:50:53;101771.97;;;12.07;81.06
9141;BME280;46330;50.822;7.126;2023-04-08T10:53:28;101763.91;;;12.31;78.45
9141;BME280;46330;50.822;7.126;2023-04-08T10:56:03;101770.63;;;12.61;76.06
9141;BME280;46330;50.822;7.126;2023-04-08T10:58:32;101771.38;;;12.74;74.19
9141;BME280;46330;50.822;7.126;2023-04-08T11:01:04;101768.28;;;12.32;74.96
9141;BME280;46330;50.822;7.126;2023-04-08T11:03:34;101756.78;;;12.47;76.58
9141;BME280;46330;50.822;7.126;2023-04-08T11:06:05;101759.66;;;12.20;74.27
9141;BME280;46330;50.822;7.126;2023-04-08T11:08:34;101761.47;;;12.09;74.65
9141;BME280;46330;50.822;7.126;2023-04-08T11:11:04;101751.59;;;12.36;73.55
9141;BME280;46330;50.822;7.126;2023-04-08T11:13:35;101758.22;;;12.77;73.84
9141;BME280;46330;50.822;7.126;2023-04-08T11:16:03;101751.03;;;12.04;70.60
9141;BME280;46330;50.822;7.126;2023-04-08T11:18:44;101747.56;;;11.98;72.23
9141;BME280;46330;50.822;7.126;2023-04-08T11:21:15;101756.38;;;11.88;72.13
9141;BME280;46330;50.822;7.126;2023-04-08T11:23:43;101745.91;;;11.86;73.48
9141;BME280;46330;50.822;7.126;2023-04-08T11:26:12;101753.69;;;11.97;72.43
9141;BME280;46330;50.822;7.126;2023-04-08T11:28:42;101751.13;;;11.88;70.51
9141;BME280;46330;50.822;7.126;2023-04-08T11:31:11;101746.78;;;11.83;70.52
9141;BME280;46330;50.822;7.126;2023-04-08T11:33:44;101748.56;;;11.78;72.23
9141;BME280;46330;50.822;7.126;2023-04-08T11:36:16;101743.34;;;11.68;72.32
9141;BME280;46330;50.822;7.126;2023-04-08T11:38:44;101741.75;;;11.41;72.66
9141;BME280;46330;50.822;7.126;2023-04-08T11:41:13;101746.97;;;11.52;72.79
9141;BME280;46330;50.822;7.126;2023-04-08T11:43:50;101740.00;;;11.45;72.36
9141;BME280;46330;50.822;7.126;2023-04-08T11:46:19;101742.63;;;11.40;73.52
9141;BME280;46330;50.822;7.126;2023-04-08T11:48:57;101741.75;;;11.46;73.03
9141;BME280;46330;50.822;7.126;2023-04-08T11:51:28;101739.13;;;11.46;72.94
9141;BME280;46330;50.822;7.126;2023-04-08T11:53:56;101744.44;;;11.30;72.45
9141;BME280;46330;50.822;7.126;2023-04-08T11:56:24;101743.59;;;11.30;71.93
9141;BME280;46330;50.822;7.126;2023-04-08T11:58:52;101744.34;;;11.47;74.27
9141;BME280;46330;50.822;7.126;2023-04-08T12:01:21;101740.06;;;11.36;73.30
9141;BME280;46330;50.822;7.126;2023-04-08T12:03:53;101747.88;;;11.37;70.63
9141;BME280;46330;50.822;7.126;2023-04-08T12:06:22;101745.31;;;11.31;69.03
9141;BME280;46330;50.822;7.126;2023-04-08T12:08:52;101747.06;;;11.29;69.70
9141;BME280;46330;50.822;7.126;2023-04-08T12:11:19;101746.13;;;11.42;68.83
9141;BME280;46330;50.822;7.126;2023-04-08T12:13:47;101740.94;;;11.33;68.55
9141;BME280;46330;50.822;7.126;2023-04-08T12:16:18;101741.78;;;11.37;68.23
9141;BME280;46330;50.822;7.126;2023-04-08T12:18:46;101745.19;;;11.49;66.15
9141;BME280;46330;50.822;7.126;2023-04-08T12:21:15;101750.50;;;11.42;67.37
9141;BME280;46330;50.822;7.126;2023-04-08T12:23:43;101744.25;;;11.67;69.69
9141;BME280;46330;50.822;7.126;2023-04-08T12:26:12;101745.09;;;11.79;67.37
9141;BME280;46330;50.822;7.126;2023-04-08T12:28:40;101745.06;;;11.81;69.78
9141;BME280;46330;50.822;7.126;2023-04-08T12:31:08;101742.25;;;12.07;70.42
9141;BME280;46330;50.822;7.126;2023-04-08T12:33:36;101745.94;;;11.78;69.85
9141;BME280;46330;50.822;7.126;2023-04-08T12:36:04;101752.91;;;11.85;72.32
9141;BME280;46330;50.822;7.126;2023-04-08T12:38:32;101746.72;;;11.93;71.65
9141;BME280;46330;50.822;7.126;2023-04-08T12:41:00;101744.09;;;11.93;70.83
9141;BME280;46330;50.822;7.126;2023-04-08T12:43:29;101744.94;;;12.01;70.06
9141;BME280;46330;50.822;7.126;2023-04-08T12:45:58;101742.22;;;12.13;68.93
9141;BME280;46330;50.822;7.126;2023-04-08T12:48:27;101742.91;;;12.31;68.50
9141;BME280;46330;50.822;7.126;2023-04-08T12:50:55;101735.78;;;12.46;69.30
9141;BME280;46330;50.822;7.126;2023-04-08T12:53:24;101744.66;;;12.35;67.70
9141;BME280;46330;50.822;7.126;2023-04-08T12:55:52;101732.59;;;12.13;62.46
9141;BME280;46330;50.822;7.126;2023-04-08T12:58:22;101741.25;;;12.21;59.26
9141;BME280;46330;50.822;7.126;2023-04-08T13:00:52;101740.94;;;12.56;58.73
9141;BME280;46330;50.822;7.126;2023-04-08T13:03:20;101733.50;;;12.98;58.00
9141;BME280;46330;50.822;7.126;2023-04-08T13:05:48;101736.38;;;12.75;56.78
9141;BME280;46330;50.822;7.126;2023-04-08T13:08:16;101737.91;;;12.92;56.45
9141;BME280;46330;50.822;7.126;2023-04-08T13:10:44;101740.53;;;12.94;56.73
9141;BME280;46330;50.822;7.126;2023-04-08T13:13:12;101738.88;;;12.88;58.95